Time;durP1;ratioP1;P1;durP2;ratioP2;P2;SDS_P1;SDS_P2;PMS_P1;PMS_P2;Temp;Humidity;BMP_temperature;BMP_pressure;BME280_temperature;BME280_humidity;BME280_pressure;Samples;Min_cycle;Max_cycle;Signal;HPM_P1;HPM_P2
2021/12/14 00:01:42;;;;;;;13.70;10.57;;;;;;;6.84;100.00;102673.31;5097543;28;20031;-84
2021/12/14 00:04:10;;;;;;;12.32;9.68;;;;;;;6.83;100.00;102685.38;5069833;28;20032;-84
2021/12/14 00:06:38;;;;;;;14.88;10.40;;;;;;;6.80;100.00;102678.44;5111817;28;20038;-84
2021/12/14 00:09:06;;;;;;;14.15;9.90;;;;;;;6.84;100.00;102688.88;5113273;28;20023;-84
2021/12/14 00:16:45;;;;;;;12.02;9.45;;;;;;;6.81;100.00;102689.66;5109873;28;20059;-84
2021/12/14 00:19:11;;;;;;;12.32;9.63;;;;;;;6.80;100.00;102672.34;5112302;28;20027;-84
2021/12/14 00:21:37;;;;;;;14.45;9.82;;;;;;;6.79;100.00;102681.84;5110634;28;20526;-84
2021/12/14 00:24:09;;;;;;;12.65;9.68;;;;;;;6.79;100.00;102684.44;5112569;28;20070;-84
2021/12/14 00:26:49;;;;;;;14.73;10.25;;;;;;;6.79;100.00;102681.84;5110793;28;20084;-84
2021/12/14 00:29:47;;;;;;;14.02;9.43;;;;;;;6.81;100.00;102679.28;5112859;28;20118;-84
2021/12/14 00:32:19;;;;;;;18.58;9.70;;;;;;;6.78;100.00;102677.50;5052536;28;20040;-84
2021/12/14 00:34:45;;;;;;;14.95;9.90;;;;;;;6.79;100.00;102683.56;5092163;28;20032;-84
2021/12/14 00:37:15;;;;;;;14.20;10.57;;;;;;;6.79;100.00;102684.44;5093579;28;20020;-84
2021/12/14 00:39:45;;;;;;;16.23;10.80;;;;;;;6.78;100.00;102681.81;5094264;28;20019;-84
2021/12/14 00:42:11;;;;;;;16.92;10.88;;;;;;;6.77;100.00;102686.13;5112798;28;20024;-84
2021/12/14 00:44:37;;;;;;;14.93;10.30;;;;;;;6.75;100.00;102697.31;5112112;28;20084;-85
2021/12/14 00:47:03;;;;;;;16.20;10.93;;;;;;;6.75;100.00;102698.19;5106710;27;20381;-84
2021/12/14 00:49:29;;;;;;;17.90;10.90;;;;;;;6.75;100.00;102700.78;5110987;28;20031;-85
2021/12/14 00:51:55;;;;;;;16.23;11.63;;;;;;;6.75;100.00;102708.53;5092121;28;20028;-84
2021/12/14 00:54:21;;;;;;;14.80;10.52;;;;;;;6.76;100.00;102717.19;5091631;28;20069;-83
2021/12/14 00:56:47;;;;;;;18.20;11.38;;;;;;;6.76;100.00;102717.19;5094891;28;20386;-85
2021/12/14 00:59:13;;;;;;;17.15;11.25;;;;;;;6.70;100.00;102707.59;5112139;28;20043;-83
2021/12/14 01:01:46;;;;;;;18.42;11.20;;;;;;;6.77;100.00;102725.03;5106821;28;20024;-85
2021/12/14 01:04:19;;;;;;;15.57;11.55;;;;;;;6.76;100.00;102723.25;5111591;28;20055;-84
2021/12/14 01:06:46;;;;;;;17.90;11.57;;;;;;;6.76;100.00;102722.38;5111463;28;20042;-84
2021/12/14 01:09:16;;;;;;;18.05;12.20;;;;;;;6.75;100.00;102716.31;5111796;28;20032;-84
2021/12/14 01:11:45;;;;;;;18.45;11.65;;;;;;;6.76;100.00;102709.41;5092591;28;20356;-84
2021/12/14 01:14:22;;;;;;;17.83;11.23;;;;;;;6.76;100.00;102706.81;5091741;28;20036;-84
2021/12/14 01:16:56;;;;;;;16.75;11.32;;;;;;;6.75;100.00;102695.59;5109072;28;20028;-84
2021/12/14 01:19:27;;;;;;;17.77;11.57;;;;;;;6.75;100.00;102700.78;5112595;28;20020;-85
2021/12/14 01:25:00;;;;;;;16.85;11.23;;;;;;;6.72;100.00;102705.88;5091295;28;20915;-84
2021/12/14 01:27:31;;;;;;;17.90;11.05;;;;;;;6.72;100.00;102699.81;5091587;28;20476;-83
2021/12/14 01:30:01;;;;;;;18.67;11.65;;;;;;;6.74;100.00;102695.56;5091745;28;20119;-84
2021/12/14 01:32:29;;;;;;;17.98;11.55;;;;;;;6.73;100.00;102683.44;5092803;28;20085;-85
2021/12/14 01:34:55;;;;;;;18.23;11.35;;;;;;;6.70;100.00;102692.03;5091096;28;20588;-84
2021/12/14 01:37:24;;;;;;;17.90;11.45;;;;;;;6.68;100.00;102683.34;5093499;28;20032;-84
2021/12/14 01:42:25;;;;;;;16.80;10.90;;;;;;;6.66;100.00;102674.63;5115536;28;20395;-84
2021/12/14 01:44:58;;;;;;;15.07;10.70;;;;;;;6.68;100.00;102675.56;5114390;28;20096;-84
2021/12/14 01:47:28;;;;;;;13.57;10.23;;;;;;;6.67;100.00;102680.69;5115990;28;20126;-84
2021/12/14 01:49:54;;;;;;;14.60;9.50;;;;;;;6.64;100.00;102673.75;5114412;28;20016;-83
2021/12/14 01:52:25;;;;;;;13.98;9.70;;;;;;;6.65;100.00;102682.41;5097085;28;20032;-84
2021/12/14 01:54:55;;;;;;;13.43;9.00;;;;;;;6.60;100.00;102676.22;5095348;28;20012;-85
2021/12/14 01:57:26;;;;;;;14.02;9.55;;;;;;;6.64;100.00;102672.84;5094842;28;20028;-84
2021/12/14 01:59:56;;;;;;;11.85;8.57;;;;;;;6.64;100.00;102671.16;5109736;28;20016;-84
2021/12/14 02:02:34;;;;;;;12.50;8.40;;;;;;;6.62;100.00;102667.66;5106557;28;20020;-84
2021/12/14 02:05:04;;;;;;;14.02;8.52;;;;;;;6.62;100.00;102659.88;5094716;28;20024;-84
2021/12/14 02:07:32;;;;;;;11.35;7.55;;;;;;;6.60;100.00;102663.25;5095226;28;20111;-84
2021/12/14 02:10:05;;;;;;;12.55;7.82;;;;;;;6.59;100.00;102648.56;5107338;28;20034;-84
2021/12/14 02:12:31;;;;;;;13.52;6.95;;;;;;;6.59;100.00;102641.66;5094657;28;20036;-84
2021/12/14 02:15:13;;;;;;;9.20;6.82;;;;;;;6.63;100.00;102642.59;5095556;28;20032;-84
2021/12/14 02:17:40;;;;;;;13.88;7.15;;;;;;;6.56;100.00;102646.78;5094439;28;20097;-84
2021/12/14 02:20:07;;;;;;;12.45;7.00;;;;;;;6.56;100.00;102642.47;5098225;28;20019;-84
2021/12/14 02:22:32;;;;;;;12.40;6.93;;;;;;;6.56;100.00;102651.97;5107984;28;20055;-84
2021/12/14 02:24:58;;;;;;;10.25;6.63;;;;;;;6.53;100.00;102647.56;5106365;28;20023;-83
2021/12/14 02:27:23;;;;;;;10.48;6.95;;;;;;;6.55;100.00;102652.81;5114804;27;20097;-83
2021/12/14 02:29:50;;;;;;;10.48;6.55;;;;;;;6.54;100.00;102643.31;5113938;28;20024;-84
2021/12/14 02:32:19;;;;;;;10.43;7.00;;;;;;;6.51;100.00;102649.28;5094168;28;20021;-84
2021/12/14 02:34:48;;;;;;;10.45;6.70;;;;;;;6.52;100.00;102653.63;5095134;28;20048;-84
2021/12/14 02:37:15;;;;;;;10.60;7.40;;;;;;;6.51;100.00;102656.19;5094483;28;20024;-84
2021/12/14 02:42:10;;;;;;;10.15;6.70;;;;;;;6.49;100.00;102656.13;5094885;28;20032;-84
2021/12/14 02:44:36;;;;;;;13.50;7.05;;;;;;;6.48;100.00;102672.53;5094337;28;20063;-84
2021/12/14 02:47:08;;;;;;;12.35;6.85;;;;;;;6.48;100.00;102669.06;5093793;28;20039;-83
2021/12/14 02:49:35;;;;;;;10.25;6.63;;;;;;;6.49;100.00;102661.31;5094412;28;20051;-84
2021/12/14 02:52:12;;;;;;;12.05;6.75;;;;;;;6.49;100.00;102676.00;5102138;28;20081;-84
2021/12/14 02:54:44;;;;;;;12.13;7.07;;;;;;;6.48;100.00;102675.13;5113090;28;20114;-84
2021/12/14 02:57:25;;;;;;;8.30;5.93;;;;;;;6.46;100.00;102658.66;5110187;28;20023;-84
2021/12/14 02:59:52;;;;;;;11.20;6.55;;;;;;;6.47;100.00;102646.56;5113967;28;20074;-84
2021/12/14 03:02:27;;;;;;;11.50;6.70;;;;;;;6.47;100.00;102647.44;5111151;28;20113;-84
2021/12/14 03:04:57;;;;;;;11.75;6.68;;;;;;;6.45;100.00;102638.78;5114354;28;20023;-84
2021/12/14 03:07:26;;;;;;;10.13;6.18;;;;;;;6.45;100.00;102641.38;5113031;28;20027;-84
2021/12/14 03:10:07;;;;;;;13.48;7.15;;;;;;;6.45;100.00;102643.09;5113969;28;20024;-84
2021/12/14 03:12:36;;;;;;;9.18;6.15;;;;;;;6.44;100.00;102642.22;5093571;28;20052;-84
2021/12/14 03:15:01;;;;;;;11.38;6.55;;;;;;;6.44;100.00;102631.84;5094740;28;20032;-84
2021/12/14 03:17:27;;;;;;;10.07;6.88;;;;;;;6.43;100.00;102624.03;5113046;28;20020;-84
2021/12/14 03:19:55;;;;;;;9.20;6.07;;;;;;;6.41;100.00;102618.84;5113885;28;20027;-84
2021/12/14 03:22:46;;;;;;;11.55;6.20;;;;;;;6.42;100.00;102607.63;5114184;28;20015;-84
2021/12/14 03:25:13;;;;;;;14.02;6.53;;;;;;;6.39;100.00;102607.53;5102371;28;20353;-84
2021/12/14 03:27:40;;;;;;;10.32;6.32;;;;;;;6.39;100.00;102609.28;5093355;28;20024;-83
2021/12/14 03:30:18;;;;;;;11.68;7.47;;;;;;;6.35;100.00;102608.34;5096003;28;20034;-84
2021/12/14 03:32:43;;;;;;;12.18;7.57;;;;;;;6.35;100.00;102612.63;5099623;28;20055;-84
2021/12/14 03:35:09;;;;;;;14.05;8.18;;;;;;;6.36;100.00;102611.78;5092669;28;20055;-84
2021/12/14 03:37:34;;;;;;;15.65;8.60;;;;;;;6.36;100.00;102617.84;5093347;28;20040;-84
2021/12/14 03:40:01;;;;;;;13.90;8.95;;;;;;;6.35;100.00;102612.63;5093342;28;20047;-83
2021/12/14 03:42:38;;;;;;;14.25;8.20;;;;;;;6.34;100.00;102614.31;5092684;28;20438;-84
2021/12/14 03:45:10;;;;;;;17.20;8.43;;;;;;;6.32;100.00;102606.53;5101922;28;20048;-83
2021/12/14 03:47:44;;;;;;;14.13;8.38;;;;;;;6.30;100.00;102605.63;5093066;28;20020;-83
2021/12/14 03:50:11;;;;;;;;;;;;;;;6.38;100.00;102623.06;5108992;28;20035;-84
2021/12/14 03:52:38;;;;;;;16.65;9.57;;;;;;;6.28;100.00;102617.69;5092936;28;20002;-84
2021/12/14 03:55:10;;;;;;;15.57;9.40;;;;;;;6.34;100.00;102637.66;5097234;28;20528;-83
2021/12/14 03:57:36;;;;;;;15.88;10.27;;;;;;;6.32;100.00;102658.34;5093503;27;20375;-84
2021/12/14 04:00:06;;;;;;;16.85;8.95;;;;;;;6.36;100.00;102658.41;5099112;28;20052;-84
2021/12/14 04:02:31;;;;;;;17.02;9.88;;;;;;;6.36;100.00;102661.00;5092633;28;20028;-84
2021/12/14 04:05:06;;;;;;;14.77;9.50;;;;;;;6.35;100.00;102667.03;5104901;28;20042;-84
2021/12/14 04:07:33;;;;;;;17.75;10.00;;;;;;;6.34;100.00;102666.13;5111612;28;20034;-83
2021/12/14 04:09:59;;;;;;;18.77;10.05;;;;;;;6.33;100.00;102674.75;5111961;28;20023;-85
2021/12/14 04:12:24;;;;;;;20.38;10.73;;;;;;;6.34;100.00;102673.91;5093845;28;20032;-84
2021/12/14 04:14:55;;;;;;;18.85;11.48;;;;;;;6.33;100.00;102673.03;5092404;28;20032;-84
2021/12/14 04:17:24;;;;;;;19.33;10.68;;;;;;;6.35;100.00;102673.09;5103197;28;20034;-84
2021/12/14 04:19:50;;;;;;;16.45;10.07;;;;;;;6.36;100.00;102663.59;5100657;28;20383;-84
2021/12/14 04:22:19;;;;;;;19.70;11.82;;;;;;;6.33;100.00;102648.84;5108566;28;20020;-84
2021/12/14 04:24:47;;;;;;;18.67;10.70;;;;;;;6.33;100.00;102654.03;5111821;28;20114;-84
2021/12/14 04:27:21;;;;;;;22.35;12.32;;;;;;;6.34;100.00;102663.53;5112707;28;20039;-84
2021/12/14 04:29:48;;;;;;;20.65;11.82;;;;;;;6.33;100.00;102659.22;5100939;28;20395;-85
2021/12/14 04:32:17;;;;;;;22.27;12.30;;;;;;;6.32;100.00;102671.28;5105455;28;20036;-84
2021/12/14 04:34:42;;;;;;;21.15;10.90;;;;;;;6.28;100.00;102656.53;5092090;28;20117;-84
2021/12/14 04:37:09;;;;;;;21.25;11.52;;;;;;;6.31;100.00;102666.97;5100990;28;20467;-84
2021/12/14 04:39:45;;;;;;;21.63;12.50;;;;;;;6.28;100.00;102651.34;5103561;27;20426;-84
2021/12/14 04:54:00;;;;;;;24.55;13.15;;;;;;;6.29;100.00;102637.56;5079826;28;20046;-84
2021/12/14 04:56:35;;;;;;;20.92;12.00;;;;;;;6.29;100.00;102627.19;5092337;28;20039;-83
2021/12/14 04:59:11;;;;;;;23.83;12.52;;;;;;;6.29;100.00;102637.56;5091378;28;20035;-83
2021/12/14 05:01:39;;;;;;;23.33;12.65;;;;;;;6.29;100.00;102629.78;5092098;28;20069;-85
2021/12/14 05:04:08;;;;;;;24.67;13.23;;;;;;;6.26;100.00;102632.28;5092102;28;20116;-84
2021/12/14 05:06:50;;;;;;;25.48;13.23;;;;;;;6.27;100.00;102636.63;5091304;28;20085;-83
2021/12/14 05:09:21;;;;;;;25.42;13.18;;;;;;;6.26;100.00;102642.66;5090645;28;20031;-83
2021/12/14 05:11:51;;;;;;;23.92;12.68;;;;;;;6.28;100.00;102643.59;5109376;28;20031;-84
2021/12/14 05:14:17;;;;;;;27.98;13.23;;;;;;;6.30;100.00;102644.47;5111042;28;20097;-84
2021/12/14 05:16:43;;;;;;;23.27;12.75;;;;;;;6.31;100.00;102635.88;5111814;28;20474;-83
2021/12/14 05:19:11;;;;;;;27.25;13.85;;;;;;;6.31;100.00;102633.28;5112017;28;20024;-83
2021/12/14 05:21:41;;;;;;;24.10;13.45;;;;;;;6.33;100.00;102629.00;5103946;28;20126;-84
2021/12/14 05:24:09;;;;;;;23.85;13.65;;;;;;;6.33;100.00;102621.22;5093095;28;20107;-84
2021/12/14 05:26:35;;;;;;;24.83;13.82;;;;;;;6.27;100.00;102618.50;5111483;28;20051;-84
2021/12/14 05:29:02;;;;;;;26.90;14.05;;;;;;;6.30;100.00;102630.66;5110002;28;20129;-84
2021/12/14 05:31:28;;;;;;;25.17;13.88;;;;;;;6.28;100.00;102634.94;5110325;28;20486;-84
2021/12/14 05:33:54;;;;;;;26.60;13.68;;;;;;;6.31;100.00;102635.88;5111708;28;20129;-84
2021/12/14 05:36:21;;;;;;;27.40;14.27;;;;;;;6.29;100.00;102629.78;5111422;28;20027;-84
2021/12/14 05:44:10;;;;;;;25.88;13.65;;;;;;;6.30;100.00;102623.75;5100800;28;20066;-85
2021/12/14 05:46:35;;;;;;;29.75;15.65;;;;;;;6.26;100.00;102632.28;5091364;28;20050;-84
2021/12/14 05:49:08;;;;;;;31.13;16.23;;;;;;;6.27;100.00;102630.56;5091744;28;20403;-84
2021/12/14 05:51:33;;;;;;;30.30;14.88;;;;;;;6.26;100.00;102637.47;5097753;28;20031;-83
2021/12/14 05:53:59;;;;;;;27.80;15.50;;;;;;;6.21;100.00;102627.84;5111428;28;20447;-84
2021/12/14 05:56:26;;;;;;;32.13;16.30;;;;;;;6.24;100.00;102633.09;5111095;28;20058;-84
2021/12/14 05:58:57;;;;;;;29.50;15.45;;;;;;;6.23;100.00;102640.00;5098540;28;20032;-84
2021/12/14 06:01:27;;;;;;;31.75;16.13;;;;;;;6.25;100.00;102643.50;5111130;28;20060;-84
2021/12/14 06:04:00;;;;;;;31.98;16.00;;;;;;;6.11;100.00;102621.56;5102729;28;20036;-84
2021/12/14 06:06:53;;;;;;;33.28;15.55;;;;;;;6.25;100.00;102643.50;5091498;28;20024;-84
2021/12/14 06:09:24;;;;;;;28.85;15.52;;;;;;;6.24;100.00;102654.69;5089213;28;20063;-83
2021/12/14 06:11:54;;;;;;;30.33;15.45;;;;;;;6.26;100.00;102658.19;5092834;28;20429;-84
2021/12/14 06:14:24;;;;;;;30.83;15.55;;;;;;;6.23;100.00;102649.50;5092665;28;20024;-84
2021/12/14 06:16:53;;;;;;;30.10;15.48;;;;;;;6.25;100.00;102659.06;5108460;28;20435;-84
2021/12/14 06:19:23;;;;;;;30.92;15.07;;;;;;;6.24;100.00;102665.03;5109675;28;20037;-84
2021/12/14 06:22:01;;;;;;;32.45;16.52;;;;;;;6.22;100.00;102660.69;5110798;28;20035;-84
2021/12/14 06:24:30;;;;;;;30.33;15.77;;;;;;;6.23;100.00;102668.50;5101895;28;20080;-84
2021/12/14 06:26:57;;;;;;;28.55;15.85;;;;;;;6.23;100.00;102673.66;5094348;28;20040;-84
2021/12/14 06:29:26;;;;;;;31.90;16.45;;;;;;;6.25;100.00;102666.81;5095582;28;20490;-84
2021/12/14 06:31:54;;;;;;;34.47;17.00;;;;;;;6.24;100.00;102670.22;5094232;28;20020;-84
2021/12/14 06:34:24;;;;;;;33.83;17.15;;;;;;;6.24;100.00;102666.75;5101266;28;20360;-84
2021/12/14 06:37:41;;;;;;;33.80;16.63;;;;;;;6.26;100.00;102665.09;5093784;28;20055;-84
2021/12/14 06:40:12;;;;;;;33.03;16.70;;;;;;;6.25;100.00;102664.22;5095151;28;20032;-83
2021/12/14 06:42:43;;;;;;;33.83;16.45;;;;;;;6.25;100.00;102666.81;5094047;28;20028;-84
2021/12/14 06:45:15;;;;;;;34.63;17.17;;;;;;;6.23;100.00;102667.63;5109514;28;20032;-84
2021/12/14 06:47:41;;;;;;;33.75;16.83;;;;;;;6.23;100.00;102667.63;5111594;28;20047;-84
2021/12/14 06:50:10;;;;;;;34.92;17.45;;;;;;;6.25;100.00;102676.31;5094262;28;20490;-84
2021/12/14 06:52:36;;;;;;;35.53;17.85;;;;;;;6.25;100.00;102677.19;5093931;28;20040;-85
2021/12/14 06:55:03;;;;;;;35.17;17.70;;;;;;;6.24;100.00;102680.59;5094243;28;20121;-84
2021/12/14 06:57:29;;;;;;;35.33;16.83;;;;;;;6.23;100.00;102680.56;5093769;28;20384;-85
2021/12/14 06:59:56;;;;;;;36.00;18.58;;;;;;;6.23;100.00;102688.34;5093615;28;20062;-84
2021/12/14 07:02:24;;;;;;;36.17;18.60;;;;;;;6.23;100.00;102686.63;5094146;28;20024;-84
2021/12/14 07:04:51;;;;;;;37.53;18.42;;;;;;;6.24;100.00;102685.75;5093991;28;20028;-84
2021/12/14 07:07:25;;;;;;;32.97;16.70;;;;;;;6.23;100.00;102691.78;5093519;28;20031;-84
2021/12/14 07:09:54;;;;;;;34.75;17.88;;;;;;;6.24;100.00;102695.25;5094761;28;20546;-84
2021/12/14 07:12:29;;;;;;;36.20;18.15;;;;;;;6.24;100.00;102693.53;5093645;28;20043;-84
2021/12/14 07:14:54;;;;;;;40.78;18.40;;;;;;;6.24;100.00;102696.13;5093077;28;20035;-84
2021/12/14 07:17:30;;;;;;;37.22;18.38;;;;;;;6.22;100.00;102694.38;5106642;28;21797;-84
2021/12/14 07:20:04;;;;;;;39.33;19.25;;;;;;;6.24;100.00;102710.78;5113739;28;20093;-83
2021/12/14 07:22:40;;;;;;;37.47;18.30;;;;;;;6.24;100.00;102714.25;5113661;28;20093;-84
2021/12/14 07:25:15;;;;;;;39.58;18.55;;;;;;;6.25;100.00;102720.34;5113853;28;20031;-84
2021/12/14 07:28:08;;;;;;;38.53;19.05;;;;;;;6.25;100.00;102721.22;5103066;28;20056;-84
2021/12/14 07:30:41;;;;;;;40.05;18.85;;;;;;;6.25;100.00;102725.53;5085212;28;20054;-84
2021/12/14 07:33:22;;;;;;;39.85;19.27;;;;;;;6.24;100.00;102729.81;5109667;28;20031;-84
2021/12/14 07:36:02;;;;;;;38.92;18.48;;;;;;;6.26;100.00;102727.25;5112431;28;20505;-85
2021/12/14 07:38:46;;;;;;;42.47;18.77;;;;;;;6.27;100.00;102732.47;5091597;28;20040;-84
2021/12/14 07:41:17;;;;;;;;;;;;;;;6.31;100.00;102729.13;5092448;28;20028;-84
2021/12/14 07:44:00;;;;;;;39.13;18.40;;;;;;;6.29;100.00;102730.81;5092994;28;19916;-85
2021/12/14 07:46:38;;;;;;;38.67;18.98;;;;;;;6.28;100.00;102729.06;5100340;28;20020;-83
2021/12/14 07:49:26;;;;;;;40.60;19.42;;;;;;;6.29;100.00;102735.13;5093914;28;20055;-84
2021/12/14 07:51:58;;;;;;;45.50;20.52;;;;;;;6.28;100.00;102736.81;5092995;28;20028;-85
2021/12/14 07:54:30;;;;;;;40.22;19.65;;;;;;;6.30;100.00;102753.25;5106313;28;20110;-84
2021/12/14 07:57:24;;;;;;;43.80;19.85;;;;;;;6.31;100.00;102760.22;5102823;28;20038;-84
2021/12/14 07:59:54;;;;;;;43.63;19.60;;;;;;;6.30;100.00;102763.63;5108375;28;20036;-84
2021/12/14 08:02:38;;;;;;;40.85;19.45;;;;;;;6.32;100.00;102761.09;5112604;28;20105;-84
2021/12/14 08:05:27;;;;;;;41.97;20.42;;;;;;;6.35;100.00;102773.25;5113119;28;20031;-82
2021/12/14 08:07:59;;;;;;;42.80;20.33;;;;;;;6.32;100.00;102764.56;5096900;28;20024;-82
2021/12/14 08:10:27;;;;;;;44.55;20.60;;;;;;;6.37;100.00;102771.56;5095815;28;20115;-84
2021/12/14 08:13:09;;;;;;;44.97;20.38;;;;;;;6.38;100.00;102766.44;5093062;28;20040;-83
2021/12/14 08:15:55;;;;;;;46.33;20.85;;;;;;;6.38;100.00;102769.03;5096412;28;20034;-82
2021/12/14 08:18:24;;;;;;;46.78;19.85;;;;;;;6.40;100.00;102767.31;5109257;28;20081;-82
2021/12/14 08:20:58;;;;;;;46.58;21.63;;;;;;;6.42;100.00;102762.19;5104667;28;20023;-82
2021/12/14 08:23:32;;;;;;;38.20;19.50;;;;;;;6.43;100.00;102769.13;5101718;28;20049;-83
2021/12/14 08:26:10;;;;;;;39.97;20.35;;;;;;;6.44;100.00;102760.50;5099792;28;20051;-81
2021/12/14 08:28:54;;;;;;;42.00;20.58;;;;;;;6.46;100.00;102766.59;5093466;28;20036;-82
2021/12/14 08:31:22;;;;;;;41.88;20.30;;;;;;;6.45;100.00;102754.50;5106747;28;20011;-83
2021/12/14 08:34:02;;;;;;;43.22;19.98;;;;;;;6.48;100.00;102764.94;5092115;28;20024;-82
2021/12/14 08:36:40;;;;;;;43.88;21.58;;;;;;;6.51;100.00;102773.66;5096082;28;20031;-83
2021/12/14 08:39:12;;;;;;;45.17;20.15;;;;;;;6.53;100.00;102765.91;5105127;28;20405;-84
2021/12/14 08:41:46;;;;;;;42.13;20.75;;;;;;;6.54;100.00;102767.69;5107655;28;20032;-83
2021/12/14 08:44:12;;;;;;;45.63;20.48;;;;;;;6.56;100.00;102776.34;5104221;28;20069;-83
2021/12/14 08:46:38;;;;;;;39.15;20.05;;;;;;;6.58;100.00;102772.09;5110154;28;20035;-83
2021/12/14 08:49:07;;;;;;;42.80;20.38;;;;;;;6.63;100.00;102778.25;5109230;28;20031;-83
2021/12/14 08:51:37;;;;;;;43.80;21.33;;;;;;;6.64;100.00;102777.41;5109445;28;20036;-83
2021/12/14 08:54:14;;;;;;;40.72;20.20;;;;;;;6.67;100.00;102777.50;5104270;28;20028;-83
2021/12/14 08:56:46;;;;;;;43.47;21.38;;;;;;;6.71;100.00;102765.47;5105742;28;20039;-82
2021/12/14 08:59:12;;;;;;;41.37;19.83;;;;;;;6.71;100.00;102771.53;5097365;28;20020;-83
2021/12/14 09:01:40;;;;;;;41.42;20.90;;;;;;;6.77;100.00;102789.81;5103956;28;20496;-83
2021/12/14 09:04:13;;;;;;;38.60;20.08;;;;;;;6.79;100.00;102790.72;5111584;28;20039;-83
2021/12/14 09:06:42;;;;;;;44.50;21.52;;;;;;;6.84;100.00;102784.78;5105504;28;20028;-83
2021/12/14 09:09:12;;;;;;;42.10;20.52;;;;;;;6.87;100.00;102787.47;5091148;28;20034;-83
2021/12/14 09:11:40;;;;;;;44.33;22.15;;;;;;;6.91;100.00;102787.53;5091046;28;20028;-84
2021/12/14 09:14:09;;;;;;;41.72;21.63;;;;;;;6.94;100.00;102784.16;5104791;28;20066;-83
2021/12/14 09:16:37;;;;;;;42.13;21.35;;;;;;;6.98;100.00;102786.84;5111993;28;20375;-83
2021/12/14 09:19:10;;;;;;;39.00;21.25;;;;;;;7.06;100.00;102784.41;5111950;28;20028;-84
2021/12/14 09:21:40;;;;;;;46.25;21.98;;;;;;;7.09;100.00;102789.66;5111457;28;20069;-83
2021/12/14 09:24:09;;;;;;;45.38;21.88;;;;;;;7.11;100.00;102788.00;5112361;28;20023;-83
2021/12/14 09:26:39;;;;;;;43.00;21.50;;;;;;;7.16;100.00;102801.94;5111524;28;20069;-83
2021/12/14 09:29:09;;;;;;;42.78;22.33;;;;;;;7.22;100.00;102807.25;5110290;28;20028;-84
2021/12/14 09:31:39;;;;;;;45.42;22.02;;;;;;;7.30;100.00;102791.00;5111628;28;20367;-83
2021/12/14 09:34:07;;;;;;;46.45;22.50;;;;;;;7.35;100.00;102797.13;5111265;28;20016;-83
2021/12/14 09:36:32;;;;;;;41.17;21.30;;;;;;;7.38;100.00;102786.81;5111646;28;20027;-83
2021/12/14 09:39:26;;;;;;;43.10;21.65;;;;;;;7.47;100.00;102795.66;5111179;28;20490;-84
2021/12/14 09:41:53;;;;;;;49.10;22.42;;;;;;;7.49;100.00;102783.63;5110273;28;20099;-84
2021/12/14 09:44:22;;;;;;;40.05;20.83;;;;;;;7.57;100.00;102786.34;5090943;28;20394;-84
2021/12/14 09:46:47;;;;;;;41.95;21.63;;;;;;;7.63;100.00;102791.66;5090928;28;20507;-83
2021/12/14 09:49:14;;;;;;;40.05;20.80;;;;;;;7.59;100.00;102791.59;5092102;28;20072;-83
2021/12/14 09:51:44;;;;;;;43.75;22.45;;;;;;;7.52;100.00;102782.81;5091029;28;20027;-83
2021/12/14 09:54:15;;;;;;;44.70;22.25;;;;;;;7.40;100.00;102777.38;5091362;28;20043;-83
2021/12/14 09:57:07;;;;;;;43.08;22.77;;;;;;;7.35;100.00;102772.06;5090091;28;20111;-83
2021/12/14 09:59:34;;;;;;;43.38;22.15;;;;;;;7.33;100.00;102771.16;5115330;28;20051;-85
2021/12/14 10:02:05;;;;;;;41.78;21.73;;;;;;;7.31;100.00;102770.25;5115027;28;20026;-84
2021/12/14 10:04:38;;;;;;;41.30;21.27;;;;;;;7.29;100.00;102774.53;5115810;28;20063;-85
2021/12/14 10:07:05;;;;;;;44.10;22.55;;;;;;;7.27;100.00;102766.72;5114691;28;20011;-84
2021/12/14 10:09:39;;;;;;;47.38;24.00;;;;;;;7.37;100.00;102765.19;5114906;28;20024;-85
2021/12/14 10:12:48;;;;;;;43.03;21.67;;;;;;;7.46;100.00;102773.16;5114319;28;20423;-84
2021/12/14 10:15:07;;;;;;;42.97;22.05;;;;;;;7.51;100.00;102761.16;5094312;28;20040;-85
2021/12/14 10:17:32;;;;;;;51.83;23.95;;;;;;;7.65;100.00;102770.91;5094400;28;20028;-84
2021/12/14 10:19:58;;;;;;;47.80;23.25;;;;;;;7.68;100.00;102779.66;5095633;28;20494;-85
2021/12/14 10:22:28;;;;;;;43.83;21.95;;;;;;;7.74;100.00;102779.75;5101889;28;20031;-85
2021/12/14 10:24:59;;;;;;;47.28;22.38;;;;;;;7.80;100.00;102784.19;5094424;28;20028;-85
2021/12/14 10:27:28;;;;;;;44.60;23.02;;;;;;;7.81;100.00;102782.47;5100569;28;20028;-85
2021/12/14 10:29:55;;;;;;;43.33;22.42;;;;;;;7.84;100.00;102779.94;5097737;28;20360;-85
2021/12/14 10:32:27;;;;;;;41.95;22.38;;;;;;;7.90;100.00;102775.72;5114735;28;20027;-84
2021/12/14 10:35:00;;;;;;;44.08;22.15;;;;;;;7.98;100.00;102775.91;5108205;28;20042;-84
2021/12/14 10:37:51;;;;;;;44.60;24.08;;;;;;;8.03;100.00;102782.03;5105885;28;20027;-85
2021/12/14 10:45:29;;;;;;;47.10;23.38;;;;;;;8.17;100.00;102787.47;5109021;28;20040;-84
2021/12/14 10:47:57;;;;;;;44.85;21.80;;;;;;;8.19;100.00;102794.44;5094134;28;20490;-84
2021/12/14 10:50:27;;;;;;;42.63;23.00;;;;;;;8.19;100.00;102785.78;5097889;28;20025;-85
2021/12/14 10:52:52;;;;;;;46.08;23.17;;;;;;;8.20;100.00;102791.00;5094191;28;20047;-84
2021/12/14 10:55:32;;;;;;;41.75;22.85;;;;;;;8.23;100.00;102786.72;5094091;28;20384;-84
2021/12/14 10:57:58;;;;;;;46.05;22.02;;;;;;;8.29;100.00;102784.22;5113680;28;20174;-84
2021/12/14 11:00:30;;;;;;;47.67;23.05;;;;;;;8.30;100.00;102785.97;5110044;28;20026;-84
2021/12/14 11:03:13;;;;;;;42.63;22.75;;;;;;;8.28;100.00;102782.47;5095476;28;20683;-85
2021/12/14 11:05:43;;;;;;;43.95;22.95;;;;;;;8.28;100.00;102779.88;5099581;28;20032;-84
2021/12/14 11:08:31;;;;;;;43.38;22.65;;;;;;;8.29;100.00;102777.28;5113115;28;20098;-83
2021/12/14 11:10:57;;;;;;;46.95;23.42;;;;;;;8.26;100.00;102781.56;5114006;28;20085;-84
2021/12/14 11:13:23;;;;;;;46.90;25.27;;;;;;;8.26;100.00;102760.78;5106106;28;20020;-85
2021/12/14 11:15:52;;;;;;;43.30;23.42;;;;;;;8.42;100.00;102773.22;5106328;28;20039;-86
2021/12/14 11:18:26;;;;;;;47.10;24.08;;;;;;;8.41;100.00;102761.94;5114332;27;20100;-85
2021/12/14 11:21:07;;;;;;;42.17;22.88;;;;;;;8.50;99.07;102771.63;5106546;28;20028;-85
2021/12/14 11:23:40;;;;;;;43.78;21.88;;;;;;;8.57;100.00;102765.66;5113986;28;20020;-84
2021/12/14 11:26:18;;;;;;;50.38;24.52;;;;;;;8.66;98.89;102762.31;5093386;28;20395;-85
2021/12/14 11:28:51;;;;;;;50.47;24.90;;;;;;;8.75;99.50;102761.56;5094056;28;20028;-84
2021/12/14 11:31:35;;;;;;;45.95;23.90;;;;;;;8.83;98.83;102760.84;5102686;28;20031;-84
2021/12/14 11:34:03;;;;;;;43.70;23.90;;;;;;;8.82;98.28;102747.81;5112949;28;20383;-84
2021/12/14 11:36:36;;;;;;;47.25;23.92;;;;;;;8.80;97.91;102746.94;5108273;28;20044;-84
2021/12/14 11:39:11;;;;;;;46.05;26.85;;;;;;;8.76;97.44;102738.19;5093197;28;20028;-84
2021/12/14 11:42:02;;;;;;;43.13;24.42;;;;;;;8.77;98.30;102749.50;5102750;28;20050;-84
2021/12/14 11:44:31;;;;;;;43.75;23.73;;;;;;;8.78;97.48;102741.69;5103736;28;20123;-84
2021/12/14 11:50:00;;;;;;;44.63;24.02;;;;;;;8.80;97.39;102741.72;5093296;27;20123;-85
2021/12/14 11:52:52;;;;;;;47.83;24.35;;;;;;;8.77;96.95;102747.75;5113975;27;20419;-85
2021/12/14 11:55:40;;;;;;;43.30;23.67;;;;;;;8.74;97.42;102741.63;5095230;27;20487;-84
2021/12/14 11:58:17;;;;;;;47.03;25.25;;;;;;;8.75;98.31;102749.44;5093440;28;20020;-84
2021/12/14 12:00:51;;;;;;;43.33;25.38;;;;;;;8.76;98.38;102745.13;5092755;28;20086;-84
2021/12/14 12:03:35;;;;;;;48.90;26.42;;;;;;;8.76;98.61;102750.31;5097279;28;20020;-84
2021/12/14 12:06:09;;;;;;;48.75;25.95;;;;;;;8.68;98.14;102753.69;5098706;28;20164;-84
2021/12/14 12:11:32;;;;;;;43.92;25.50;;;;;;;8.68;97.95;102756.28;5113570;28;20038;-85
2021/12/14 12:13:58;;;;;;;54.00;25.75;;;;;;;8.65;98.28;102752.75;5111919;28;20027;-85